sensor_id;sensor_type;location;lat;lon;timestamp;pressure;altitude;pressure_sealevel;temperature;humidity
77737;BME280;66903;59.926;30.404;2023-07-02T00:04:58;99215.00;;;27.76;45.27
77737;BME280;66903;59.926;30.404;2023-07-02T00:21:36;99225.38;;;27.65;45.51
77737;BME280;66903;59.926;30.404;2023-07-02T00:32:15;99216.00;;;27.68;45.01
77737;BME280;66903;59.926;30.404;2023-07-02T00:37:34;99204.97;;;27.54;45.53
77737;BME280;66903;59.926;30.404;2023-07-02T00:54:00;99199.06;;;27.63;45.84
77737;BME280;66903;59.926;30.404;2023-07-02T01:05:14;99192.25;;;28.10;44.39
77737;BME280;66903;59.926;30.404;2023-07-02T01:27:04;99192.06;;;28.19;43.62
77737;BME280;66903;59.926;30.404;2023-07-02T01:32:38;99189.56;;;27.90;43.74
77737;BME280;66903;59.926;30.404;2023-07-02T01:37:57;99197.72;;;27.88;44.32
77737;BME280;66903;59.926;30.404;2023-07-02T01:43:17;99194.25;;;27.94;43.55
77737;BME280;66903;59.926;30.404;2023-07-02T01:48:36;99206.13;;;27.81;44.23
77737;BME280;66903;59.926;30.404;2023-07-02T02:11:05;99199.69;;;27.56;44.19
77737;BME280;66903;59.926;30.404;2023-07-02T02:22:22;99199.75;;;27.72;43.87
77737;BME280;66903;59.926;30.404;2023-07-02T02:27:51;99207.09;;;27.57;44.06
77737;BME280;66903;59.926;30.404;2023-07-02T02:39:08;99199.44;;;27.21;44.19
77737;BME280;66903;59.926;30.404;2023-07-02T02:44:09;99200.22;;;27.06;44.88
77737;BME280;66903;59.926;30.404;2023-07-02T02:49:28;99200.34;;;26.98;44.90
77737;BME280;66903;59.926;30.404;2023-07-02T03:00:47;99197.59;;;27.01;45.33
77737;BME280;66903;59.926;30.404;2023-07-02T03:06:07;99201.00;;;27.31;44.77
77737;BME280;66903;59.926;30.404;2023-07-02T03:11:11;99198.75;;;27.52;44.85
77737;BME280;66903;59.926;30.404;2023-07-02T03:16:17;99198.03;;;27.55;44.07
77737;BME280;66903;59.926;30.404;2023-07-02T03:21:36;99193.13;;;27.56;44.14
77737;BME280;66903;59.926;30.404;2023-07-02T03:26:55;99199.13;;;27.51;44.39
77737;BME280;66903;59.926;30.404;2023-07-02T03:43:30;99201.94;;;27.63;43.74
77737;BME280;66903;59.926;30.404;2023-07-02T03:54:12;99204.28;;;27.73;43.88
77737;BME280;66903;59.926;30.404;2023-07-02T04:04:53;99194.41;;;27.58;43.82
77737;BME280;66903;59.926;30.404;2023-07-02T04:10:12;99195.22;;;27.43;43.76
77737;BME280;66903;59.926;30.404;2023-07-02T04:15:13;99184.84;;;27.39;43.85
77737;BME280;66903;59.926;30.404;2023-07-02T04:26:10;99182.91;;;27.43;44.38
77737;BME280;66903;59.926;30.404;2023-07-02T04:36:51;99196.16;;;27.47;44.36
77737;BME280;66903;59.926;30.404;2023-07-02T04:42:10;99188.09;;;27.53;44.20
77737;BME280;66903;59.926;30.404;2023-07-02T04:47:29;99200.66;;;27.76;44.16
77737;BME280;66903;59.926;30.404;2023-07-02T04:52:49;99211.00;;;27.92;43.85
77737;BME280;66903;59.926;30.404;2023-07-02T04:57:49;99207.50;;;27.99;43.69
77737;BME280;66903;59.926;30.404;2023-07-02T05:02:50;99218.22;;;28.02;44.26
77737;BME280;66903;59.926;30.404;2023-07-02T05:07:50;99218.88;;;28.11;43.72
77737;BME280;66903;59.926;30.404;2023-07-02T05:13:09;99224.06;;;28.05;43.28
77737;BME280;66903;59.926;30.404;2023-07-02T05:18:10;99227.22;;;28.00;43.88
77737;BME280;66903;59.926;30.404;2023-07-02T05:29:07;99235.75;;;28.12;44.14
77737;BME280;66903;59.926;30.404;2023-07-02T05:34:26;99231.78;;;28.17;43.98
77737;BME280;66903;59.926;30.404;2023-07-02T05:39:27;99224.00;;;28.17;44.13
77737;BME280;66903;59.926;30.404;2023-07-02T05:44:27;99230.84;;;28.13;43.53
77737;BME280;66903;59.926;30.404;2023-07-02T05:49:28;99229.28;;;28.15;43.57
77737;BME280;66903;59.926;30.404;2023-07-02T05:54:28;99224.84;;;28.33;43.12
77737;BME280;66903;59.926;30.404;2023-07-02T05:59:47;99218.47;;;28.40;43.81
77737;BME280;66903;59.926;30.404;2023-07-02T06:04:48;99231.00;;;28.63;42.90
77737;BME280;66903;59.926;30.404;2023-07-02T06:10:07;99234.47;;;28.72;43.35
77737;BME280;66903;59.926;30.404;2023-07-02T06:15:08;99241.06;;;28.73;42.91
77737;BME280;66903;59.926;30.404;2023-07-02T06:20:27;99232.56;;;28.61;42.64
77737;BME280;66903;59.926;30.404;2023-07-02T06:25:28;99252.66;;;28.45;43.58
77737;BME280;66903;59.926;30.404;2023-07-02T06:30:46;99249.59;;;28.38;43.87
77737;BME280;66903;59.926;30.404;2023-07-02T06:36:14;99248.38;;;28.39;43.59
77737;BME280;66903;59.926;30.404;2023-07-02T06:41:34;99243.75;;;28.34;43.42
77737;BME280;66903;59.926;30.404;2023-07-02T06:46:35;99250.78;;;28.37;43.82
77737;BME280;66903;59.926;30.404;2023-07-02T06:51:35;99252.75;;;28.49;43.46
77737;BME280;66903;59.926;30.404;2023-07-02T06:56:54;99260.53;;;28.64;43.39
77737;BME280;66903;59.926;30.404;2023-07-02T07:02:13;99253.50;;;28.77;43.09
77737;BME280;66903;59.926;30.404;2023-07-02T07:07:32;99260.88;;;28.93;43.01
77737;BME280;66903;59.926;30.404;2023-07-02T07:12:51;99249.59;;;29.35;42.48
77737;BME280;66903;59.926;30.404;2023-07-02T07:18:10;99253.31;;;29.93;41.80
77737;BME280;66903;59.926;30.404;2023-07-02T07:23:29;99263.72;;;30.39;41.49
77737;BME280;66903;59.926;30.404;2023-07-02T07:28:30;99259.22;;;30.64;40.07
77737;BME280;66903;59.926;30.404;2023-07-02T07:33:51;99256.69;;;30.82;40.82
77737;BME280;66903;59.926;30.404;2023-07-02T07:39:10;99263.41;;;30.89;40.14
77737;BME280;66903;59.926;30.404;2023-07-02T07:44:11;99274.81;;;30.82;40.10
77737;BME280;66903;59.926;30.404;2023-07-02T07:49:30;99266.75;;;30.91;39.90
77737;BME280;66903;59.926;30.404;2023-07-02T07:54:30;99276.44;;;31.06;39.47
77737;BME280;66903;59.926;30.404;2023-07-02T07:59:31;99283.50;;;31.08;39.24
77737;BME280;66903;59.926;30.404;2023-07-02T08:04:50;99297.97;;;31.12;39.20
77737;BME280;66903;59.926;30.404;2023-07-02T08:09:50;99297.75;;;31.24;38.67
77737;BME280;66903;59.926;30.404;2023-07-02T08:14:50;99305.91;;;31.18;38.75
77737;BME280;66903;59.926;30.404;2023-07-02T08:20:00;99304.69;;;31.19;39.29
77737;BME280;66903;59.926;30.404;2023-07-02T08:25:22;99310.38;;;31.38;38.42
77737;BME280;66903;59.926;30.404;2023-07-02T08:30:41;99296.66;;;31.58;38.03
77737;BME280;66903;59.926;30.404;2023-07-02T08:35:42;99302.25;;;31.74;38.07
77737;BME280;66903;59.926;30.404;2023-07-02T08:40:42;99310.66;;;31.86;37.96
77737;BME280;66903;59.926;30.404;2023-07-02T08:46:02;99316.13;;;31.91;38.00
77737;BME280;66903;59.926;30.404;2023-07-02T08:51:02;99308.88;;;32.04;37.96
77737;BME280;66903;59.926;30.404;2023-07-02T08:56:03;99303.63;;;32.16;36.94
77737;BME280;66903;59.926;30.404;2023-07-02T09:01:22;99296.75;;;32.28;37.61
77737;BME280;66903;59.926;30.404;2023-07-02T09:06:23;99303.44;;;32.32;37.64
77737;BME280;66903;59.926;30.404;2023-07-02T09:11:24;99288.94;;;32.28;37.80
77737;BME280;66903;59.926;30.404;2023-07-02T09:16:43;99291.03;;;32.31;38.04
77737;BME280;66903;59.926;30.404;2023-07-02T09:22:02;99288.97;;;32.32;37.87
77737;BME280;66903;59.926;30.404;2023-07-02T09:27:36;99303.47;;;32.35;38.42
77737;BME280;66903;59.926;30.404;2023-07-02T09:32:36;99298.06;;;32.34;38.00
77737;BME280;66903;59.926;30.404;2023-07-02T09:37:56;99296.13;;;32.41;38.70
77737;BME280;66903;59.926;30.404;2023-07-02T09:42:57;99292.81;;;32.43;38.20
77737;BME280;66903;59.926;30.404;2023-07-02T09:53:39;99271.44;;;32.51;38.00
77737;BME280;66903;59.926;30.404;2023-07-02T09:58:59;99272.31;;;32.59;37.81
77737;BME280;66903;59.926;30.404;2023-07-02T10:04:44;99275.75;;;32.71;37.80
77737;BME280;66903;59.926;30.404;2023-07-02T10:10:03;99264.16;;;32.68;37.28
77737;BME280;66903;59.926;30.404;2023-07-02T10:15:04;99265.88;;;32.72;37.32
77737;BME280;66903;59.926;30.404;2023-07-02T10:20:06;99277.56;;;32.86;37.84
77737;BME280;66903;59.926;30.404;2023-07-02T10:25:07;99293.34;;;32.92;37.64
77737;BME280;66903;59.926;30.404;2023-07-02T10:30:09;99289.22;;;32.93;36.98
77737;BME280;66903;59.926;30.404;2023-07-02T10:35:17;99281.34;;;32.94;37.66
77737;BME280;66903;59.926;30.404;2023-07-02T10:40:18;99294.53;;;32.88;37.21
77737;BME280;66903;59.926;30.404;2023-07-02T10:45:19;99281.66;;;32.85;37.06
77737;BME280;66903;59.926;30.404;2023-07-02T10:50:38;99280.41;;;32.79;37.33
77737;BME280;66903;59.926;30.404;2023-07-02T10:55:39;99289.09;;;32.83;36.74
77737;BME280;66903;59.926;30.404;2023-07-02T11:00:58;99289.91;;;32.83;36.77
77737;BME280;66903;59.926;30.404;2023-07-02T11:06:17;99291.59;;;32.84;37.03
77737;BME280;66903;59.926;30.404;2023-07-02T11:11:36;99299.03;;;32.85;37.27
77737;BME280;66903;59.926;30.404;2023-07-02T11:16:37;99312.28;;;32.86;36.88
77737;BME280;66903;59.926;30.404;2023-07-02T11:21:38;99313.94;;;32.87;36.99
77737;BME280;66903;59.926;30.404;2023-07-02T11:27:23;99316.47;;;32.92;37.24
77737;BME280;66903;59.926;30.404;2023-07-02T11:32:52;99319.38;;;32.92;36.88
77737;BME280;66903;59.926;30.404;2023-07-02T11:37:52;99302.34;;;32.87;37.24
77737;BME280;66903;59.926;30.404;2023-07-02T11:54:49;99302.34;;;32.87;37.12
77737;BME280;66903;59.926;30.404;2023-07-02T12:00:23;99308.94;;;32.84;36.58
77737;BME280;66903;59.926;30.404;2023-07-02T12:05:24;99319.22;;;32.78;36.34
77737;BME280;66903;59.926;30.404;2023-07-02T12:10:43;99325.41;;;32.77;36.20
77737;BME280;66903;59.926;30.404;2023-07-02T12:16:02;99344.38;;;32.74;35.88
77737;BME280;66903;59.926;30.404;2023-07-02T12:21:02;99346.00;;;32.72;36.11
77737;BME280;66903;59.926;30.404;2023-07-02T12:26:03;99360.47;;;32.72;36.39
77737;BME280;66903;59.926;30.404;2023-07-02T12:31:03;99357.91;;;32.63;36.93
77737;BME280;66903;59.926;30.404;2023-07-02T12:36:07;99351.25;;;32.59;36.94
77737;BME280;66903;59.926;30.404;2023-07-02T12:41:08;99355.38;;;32.58;37.27
77737;BME280;66903;59.926;30.404;2023-07-02T12:46:08;99350.00;;;32.60;37.78
77737;BME280;66903;59.926;30.404;2023-07-02T12:51:09;99347.47;;;32.55;38.01
77737;BME280;66903;59.926;30.404;2023-07-02T12:56:09;99349.50;;;32.51;37.73
77737;BME280;66903;59.926;30.404;2023-07-02T13:01:28;99342.94;;;32.54;38.42
77737;BME280;66903;59.926;30.404;2023-07-02T13:06:59;99352.91;;;32.60;37.86
77737;BME280;66903;59.926;30.404;2023-07-02T13:12:18;99345.84;;;32.58;38.12
77737;BME280;66903;59.926;30.404;2023-07-02T13:17:38;99350.00;;;32.57;38.87
77737;BME280;66903;59.926;30.404;2023-07-02T13:23:00;99352.03;;;32.56;39.14
77737;BME280;66903;59.926;30.404;2023-07-02T13:28:13;99346.22;;;32.53;39.45
77737;BME280;66903;59.926;30.404;2023-07-02T13:33:13;99336.72;;;32.52;39.54
77737;BME280;66903;59.926;30.404;2023-07-02T13:38:14;99332.97;;;32.51;39.53
77737;BME280;66903;59.926;30.404;2023-07-02T13:43:14;99322.16;;;32.45;39.94
77737;BME280;66903;59.926;30.404;2023-07-02T13:48:15;99347.03;;;32.49;39.43
77737;BME280;66903;59.926;30.404;2023-07-02T13:53:15;99347.44;;;32.51;39.89
77737;BME280;66903;59.926;30.404;2023-07-02T13:58:16;99344.97;;;32.53;39.46
77737;BME280;66903;59.926;30.404;2023-07-02T14:03:16;99338.34;;;32.49;39.45
77737;BME280;66903;59.926;30.404;2023-07-02T14:08:16;99345.03;;;32.57;39.73
77737;BME280;66903;59.926;30.404;2023-07-02T14:13:29;99352.94;;;32.64;39.47
77737;BME280;66903;59.926;30.404;2023-07-02T14:18:48;99349.28;;;32.67;39.56
77737;BME280;66903;59.926;30.404;2023-07-02T14:23:48;99341.38;;;32.64;40.23
77737;BME280;66903;59.926;30.404;2023-07-02T14:29:07;99349.72;;;32.69;39.78
77737;BME280;66903;59.926;30.404;2023-07-02T14:34:25;99339.31;;;32.64;39.63
77737;BME280;66903;59.926;30.404;2023-07-02T14:39:27;99340.56;;;32.63;39.34
77737;BME280;66903;59.926;30.404;2023-07-02T14:44:28;99337.69;;;32.67;38.71
77737;BME280;66903;59.926;30.404;2023-07-02T14:49:46;99335.66;;;32.71;39.45
77737;BME280;66903;59.926;30.404;2023-07-02T14:54:47;99323.63;;;32.65;38.76
77737;BME280;66903;59.926;30.404;2023-07-02T14:59:48;99314.13;;;32.65;39.06
77737;BME280;66903;59.926;30.404;2023-07-02T15:04:59;99316.22;;;32.68;39.09
77737;BME280;66903;59.926;30.404;2023-07-02T15:10:00;99311.66;;;32.67;39.41
77737;BME280;66903;59.926;30.404;2023-07-02T15:15:00;99300.56;;;32.72;39.45
77737;BME280;66903;59.926;30.404;2023-07-02T15:20:04;99302.66;;;32.75;38.89
77737;BME280;66903;59.926;30.404;2023-07-02T15:25:11;99285.66;;;32.67;39.08
77737;BME280;66903;59.926;30.404;2023-07-02T15:30:30;99293.16;;;32.75;38.87
77737;BME280;66903;59.926;30.404;2023-07-02T15:35:31;99289.09;;;32.83;38.86
77737;BME280;66903;59.926;30.404;2023-07-02T15:40:31;99303.19;;;32.88;39.06
77737;BME280;66903;59.926;30.404;2023-07-02T15:45:32;99297.44;;;32.91;38.76
77737;BME280;66903;59.926;30.404;2023-07-02T15:50:47;99289.63;;;32.95;38.96
77737;BME280;66903;59.926;30.404;2023-07-02T15:56:06;99285.88;;;32.91;38.48
77737;BME280;66903;59.926;30.404;2023-07-02T16:01:14;99285.44;;;32.89;38.34
77737;BME280;66903;59.926;30.404;2023-07-02T16:06:14;99280.84;;;32.88;38.85
77737;BME280;66903;59.926;30.404;2023-07-02T16:11:15;99266.00;;;32.86;38.46
77737;BME280;66903;59.926;30.404;2023-07-02T16:16:15;99269.78;;;32.94;38.85
77737;BME280;66903;59.926;30.404;2023-07-02T16:21:16;99277.66;;;32.93;38.85
77737;BME280;66903;59.926;30.404;2023-07-02T16:26:17;99262.34;;;32.93;38.82
77737;BME280;66903;59.926;30.404;2023-07-02T16:31:17;99273.47;;;32.91;39.00
77737;BME280;66903;59.926;30.404;2023-07-02T16:36:18;99265.59;;;32.88;38.37
77737;BME280;66903;59.926;30.404;2023-07-02T16:41:18;99276.75;;;32.89;38.35
77737;BME280;66903;59.926;30.404;2023-07-02T16:46:19;99259.78;;;32.84;38.48
77737;BME280;66903;59.926;30.404;2023-07-02T16:51:19;99270.53;;;32.87;38.54
77737;BME280;66903;59.926;30.404;2023-07-02T16:56:20;99261.41;;;32.85;39.10
77737;BME280;66903;59.926;30.404;2023-07-02T17:01:20;99259.38;;;32.86;38.90
77737;BME280;66903;59.926;30.404;2023-07-02T17:06:21;99252.34;;;32.87;38.53
77737;BME280;66903;59.926;30.404;2023-07-02T17:11:21;99247.38;;;32.87;39.16
77737;BME280;66903;59.926;30.404;2023-07-02T17:16:22;99249.44;;;32.87;39.04
77737;BME280;66903;59.926;30.404;2023-07-02T17:21:22;99240.75;;;32.87;39.07
77737;BME280;66903;59.926;30.404;2023-07-02T17:26:23;99245.75;;;32.86;38.90
77737;BME280;66903;59.926;30.404;2023-07-02T17:31:23;99237.03;;;32.83;39.37
77737;BME280;66903;59.926;30.404;2023-07-02T17:36:24;99235.81;;;32.87;39.08
77737;BME280;66903;59.926;30.404;2023-07-02T17:41:24;99237.03;;;32.83;39.76
77737;BME280;66903;59.926;30.404;2023-07-02T17:46:25;99228.31;;;32.79;39.77
77737;BME280;66903;59.926;30.404;2023-07-02T17:51:28;99231.19;;;32.76;40.07
77737;BME280;66903;59.926;30.404;2023-07-02T17:56:29;99220.41;;;32.73;40.06
77737;BME280;66903;59.926;30.404;2023-07-02T18:01:30;99218.34;;;32.73;39.98
77737;BME280;66903;59.926;30.404;2023-07-02T18:06:30;99242.75;;;32.76;39.55
77737;BME280;66903;59.926;30.404;2023-07-02T18:11:32;99247.28;;;32.73;40.04
77737;BME280;66903;59.926;30.404;2023-07-02T18:16:34;99255.91;;;32.70;39.70
77737;BME280;66903;59.926;30.404;2023-07-02T18:21:37;99243.47;;;32.66;40.14
77737;BME280;66903;59.926;30.404;2023-07-02T18:26:38;99229.34;;;32.57;39.75
77737;BME280;66903;59.926;30.404;2023-07-02T18:31:38;99230.91;;;32.44;40.14
77737;BME280;66903;59.926;30.404;2023-07-02T18:36:55;99217.59;;;32.39;40.73
77737;BME280;66903;59.926;30.404;2023-07-02T18:42:07;99208.38;;;32.27;40.87
77737;BME280;66903;59.926;30.404;2023-07-02T18:47:12;99209.94;;;32.17;41.07
77737;BME280;66903;59.926;30.404;2023-07-02T18:52:37;99199.53;;;32.09;40.47
77737;BME280;66903;59.926;30.404;2023-07-02T18:57:38;99193.06;;;31.86;41.37
77737;BME280;66903;59.926;30.404;2023-07-02T19:02:41;99185.50;;;31.75;41.47
77737;BME280;66903;59.926;30.404;2023-07-02T19:07:41;99182.16;;;31.73;41.75
77737;BME280;66903;59.926;30.404;2023-07-02T19:12:45;99182.16;;;31.73;41.45
77737;BME280;66903;59.926;30.404;2023-07-02T19:17:46;99181.31;;;31.69;41.29
77737;BME280;66903;59.926;30.404;2023-07-02T19:22:48;99177.19;;;31.70;41.43
77737;BME280;66903;59.926;30.404;2023-07-02T19:27:48;99172.81;;;31.83;40.89
77737;BME280;66903;59.926;30.404;2023-07-02T19:32:49;99169.25;;;31.93;40.03
77737;BME280;66903;59.926;30.404;2023-07-02T19:37:50;99164.81;;;32.06;39.25
77737;BME280;66903;59.926;30.404;2023-07-02T19:43:06;99154.13;;;32.10;39.08
77737;BME280;66903;59.926;30.404;2023-07-02T19:48:06;99155.78;;;32.07;38.59
77737;BME280;66903;59.926;30.404;2023-07-02T19:53:07;99141.72;;;32.06;38.65
77737;BME280;66903;59.926;30.404;2023-07-02T19:58:07;99144.19;;;32.04;38.52
77737;BME280;66903;59.926;30.404;2023-07-02T20:03:08;99140.56;;;31.77;37.62
77737;BME280;66903;59.926;30.404;2023-07-02T20:08:09;99128.53;;;30.30;38.92
77737;BME280;66903;59.926;30.404;2023-07-02T20:13:10;99124.88;;;28.89;40.74
77737;BME280;66903;59.926;30.404;2023-07-02T20:18:11;99121.63;;;27.78;41.78
77737;BME280;66903;59.926;30.404;2023-07-02T20:23:14;99105.53;;;27.03;43.43
77737;BME280;66903;59.926;30.404;2023-07-02T20:28:14;99105.03;;;26.49;44.27
77737;BME280;66903;59.926;30.404;2023-07-02T20:33:15;99100.69;;;26.15;44.75
77737;BME280;66903;59.926;30.404;2023-07-02T20:38:24;99101.34;;;25.88;44.90
77737;BME280;66903;59.926;30.404;2023-07-02T20:43:28;99093.00;;;25.59;45.56
77737;BME280;66903;59.926;30.404;2023-07-02T20:48:46;99086.88;;;25.37;45.23
77737;BME280;66903;59.926;30.404;2023-07-02T20:53:47;99075.47;;;25.28;43.70
77737;BME280;66903;59.926;30.404;2023-07-02T20:58:47;99071.00;;;24.94;46.86
77737;BME280;66903;59.926;30.404;2023-07-02T21:03:50;99083.75;;;24.76;47.59
77737;BME280;66903;59.926;30.404;2023-07-02T21:09:10;99073.38;;;24.72;47.77
77737;BME280;66903;59.926;30.404;2023-07-02T21:14:11;99064.81;;;24.72;47.42
77737;BME280;66903;59.926;30.404;2023-07-02T21:19:12;99062.34;;;24.62;47.40
77737;BME280;66903;59.926;30.404;2023-07-02T21:24:16;99052.34;;;24.56;47.73
77737;BME280;66903;59.926;30.404;2023-07-02T21:29:29;99045.09;;;24.58;47.28
77737;BME280;66903;59.926;30.404;2023-07-02T21:34:32;99044.72;;;24.60;47.80
77737;BME280;66903;59.926;30.404;2023-07-02T21:39:35;99050.22;;;24.65;49.00
77737;BME280;66903;59.926;30.404;2023-07-02T21:44:36;99052.06;;;25.02;48.76
77737;BME280;66903;59.926;30.404;2023-07-02T21:49:42;99063.56;;;25.71;48.20
77737;BME280;66903;59.926;30.404;2023-07-02T21:55:00;99071.91;;;26.36;47.27
77737;BME280;66903;59.926;30.404;2023-07-02T22:00:05;99059.66;;;26.75;47.06
77737;BME280;66903;59.926;30.404;2023-07-02T22:05:10;99067.94;;;26.92;46.51
77737;BME280;66903;59.926;30.404;2023-07-02T22:10:13;99059.75;;;27.06;46.71
77737;BME280;66903;59.926;30.404;2023-07-02T22:15:17;99059.66;;;27.31;46.94
77737;BME280;66903;59.926;30.404;2023-07-02T22:20:18;99048.00;;;27.55;46.47
77737;BME280;66903;59.926;30.404;2023-07-02T22:25:19;99043.13;;;27.71;45.89
77737;BME280;66903;59.926;30.404;2023-07-02T22:30:26;99044.53;;;27.77;46.05
77737;BME280;66903;59.926;30.404;2023-07-02T22:35:27;99055.25;;;27.80;46.21
77737;BME280;66903;59.926;30.404;2023-07-02T22:40:28;99061.16;;;27.87;46.22
77737;BME280;66903;59.926;30.404;2023-07-02T22:45:29;99067.22;;;27.97;45.84
77737;BME280;66903;59.926;30.404;2023-07-02T22:50:30;99066.09;;;28.02;46.53
77737;BME280;66903;59.926;30.404;2023-07-02T22:55:31;99064.59;;;28.08;46.47
77737;BME280;66903;59.926;30.404;2023-07-02T23:00:50;99062.53;;;28.24;45.90
77737;BME280;66903;59.926;30.404;2023-07-02T23:05:53;99056.75;;;28.40;45.49
77737;BME280;66903;59.926;30.404;2023-07-02T23:10:54;99054.97;;;28.51;45.08
77737;BME280;66903;59.926;30.404;2023-07-02T23:15:54;99053.50;;;28.57;44.71
77737;BME280;66903;59.926;30.404;2023-07-02T23:20:56;99042.66;;;28.50;44.96
77737;BME280;66903;59.926;30.404;2023-07-02T23:25:57;99036.94;;;28.34;44.95
77737;BME280;66903;59.926;30.404;2023-07-02T23:31:00;99029.94;;;28.16;45.70
77737;BME280;66903;59.926;30.404;2023-07-02T23:36:04;99037.66;;;27.97;46.15
77737;BME280;66903;59.926;30.404;2023-07-02T23:41:05;99025.44;;;27.84;45.84
77737;BME280;66903;59.926;30.404;2023-07-02T23:46:06;99036.72;;;27.77;46.22
77737;BME280;66903;59.926;30.404;2023-07-02T23:51:07;99038.69;;;27.73;45.67
77737;BME280;66903;59.926;30.404;2023-07-02T23:56:13;99048.00;;;27.55;46.42
